createdAt,value
2022-11-08T00:01:35.115Z,1.80
2022-11-08T00:04:21.591Z,1.80
2022-11-08T00:07:08.182Z,1.53
2022-11-08T00:09:54.679Z,1.83
2022-11-08T00:12:40.914Z,1.77
2022-11-08T00:15:09.334Z,1.80
2022-11-08T00:17:37.206Z,2.10
2022-11-08T00:20:06.204Z,2.07
2022-11-08T00:22:34.260Z,2.23
2022-11-08T00:25:02.282Z,2.10
2022-11-08T00:27:30.421Z,1.70
2022-11-08T00:29:58.342Z,1.87
2022-11-08T00:32:26.960Z,2.20
2022-11-08T00:34:55.097Z,2.00
2022-11-08T00:37:23.457Z,1.93
2022-11-08T00:39:51.293Z,1.87
2022-11-08T00:42:19.310Z,2.30
2022-11-08T00:44:47.302Z,1.90
2022-11-08T00:47:15.169Z,2.30
2022-11-08T00:49:43.037Z,2.13
2022-11-08T00:52:11.492Z,2.10
2022-11-08T00:54:39.355Z,1.87
2022-11-08T00:57:08.849Z,2.40
2022-11-08T00:59:37.259Z,2.60
2022-11-08T01:02:05.243Z,2.63
2022-11-08T01:04:33.156Z,2.50
2022-11-08T01:07:01.103Z,2.47
2022-11-08T01:09:28.944Z,2.70
2022-11-08T01:11:56.825Z,2.30
2022-11-08T01:14:24.653Z,2.37
2022-11-08T01:16:52.722Z,2.20
2022-11-08T01:19:20.492Z,2.20
2022-11-08T01:21:48.587Z,2.97
2022-11-08T01:24:16.379Z,2.40
2022-11-08T01:26:44.320Z,2.10
2022-11-08T01:29:12.119Z,2.30
2022-11-08T01:31:40.114Z,2.30
2022-11-08T01:34:07.923Z,2.23
2022-11-08T01:36:35.813Z,2.23
2022-11-08T01:39:04.257Z,2.10
2022-11-08T01:41:32.001Z,2.20
2022-11-08T01:44:00.194Z,2.20
2022-11-08T01:46:31.270Z,2.20
2022-11-08T01:49:02.118Z,2.47
2022-11-08T01:51:34.752Z,2.03
2022-11-08T01:54:03.518Z,2.00
2022-11-08T01:56:31.666Z,2.00
2022-11-08T01:59:00.250Z,1.80
2022-11-08T02:01:28.274Z,2.60
2022-11-08T02:03:56.302Z,2.10
2022-11-08T02:06:24.455Z,2.13
2022-11-08T02:08:52.361Z,2.03
2022-11-08T02:11:20.372Z,2.20
2022-11-08T02:13:48.335Z,2.20
2022-11-08T02:16:17.329Z,2.00
2022-11-08T02:18:46.534Z,2.00
2022-11-08T02:21:23.682Z,2.20
2022-11-08T02:23:52.554Z,2.00
2022-11-08T02:26:22.076Z,2.20
2022-11-08T02:28:50.538Z,1.90
2022-11-08T02:31:19.677Z,2.10
2022-11-08T02:33:48.537Z,2.03
2022-11-08T02:36:21.790Z,2.10
2022-11-08T02:38:53.450Z,2.10
2022-11-08T02:41:21.349Z,2.00
2022-11-08T02:43:49.213Z,2.00
2022-11-08T02:46:17.043Z,2.10
2022-11-08T02:48:44.960Z,2.20
2022-11-08T02:51:12.840Z,2.07
2022-11-08T02:53:40.687Z,2.20
2022-11-08T02:56:08.785Z,2.10
2022-11-08T02:58:36.577Z,1.93
2022-11-08T03:01:05.101Z,2.00
2022-11-08T03:03:32.877Z,1.97
2022-11-08T03:06:00.805Z,1.80
2022-11-08T03:08:28.681Z,2.03
2022-11-08T03:10:56.581Z,2.07
2022-11-08T03:13:24.409Z,2.10
2022-11-08T03:15:52.297Z,2.17
2022-11-08T03:18:20.391Z,2.13
2022-11-08T03:20:48.511Z,2.17
2022-11-08T03:23:16.547Z,2.17
2022-11-08T03:25:44.411Z,2.20
2022-11-08T03:28:12.178Z,2.40
2022-11-08T03:30:40.091Z,2.50
2022-11-08T03:33:07.851Z,1.93
2022-11-08T03:35:35.730Z,2.17
2022-11-08T03:38:03.623Z,2.20
2022-11-08T03:40:31.513Z,2.10
2022-11-08T03:42:59.437Z,2.30
2022-11-08T03:45:27.300Z,2.10
2022-11-08T03:47:55.286Z,2.40
2022-11-08T03:50:23.339Z,2.00
2022-11-08T03:52:52.214Z,2.13
2022-11-08T03:55:21.093Z,2.00
2022-11-08T03:57:50.224Z,2.20
2022-11-08T04:00:19.198Z,2.27
2022-11-08T04:02:47.118Z,2.30
2022-11-08T04:05:15.221Z,2.37
2022-11-08T04:07:43.558Z,2.20
2022-11-08T04:10:12.211Z,1.90
2022-11-08T04:12:59.715Z,2.20
2022-11-08T04:15:28.157Z,2.00
2022-11-08T04:18:15.397Z,2.10
2022-11-08T04:21:03.096Z,2.10
2022-11-08T04:23:31.798Z,2.20
2022-11-08T04:26:00.557Z,2.20
2022-11-08T04:28:29.261Z,2.10
2022-11-08T04:30:58.552Z,2.30
2022-11-08T04:33:27.331Z,2.17
2022-11-08T04:35:55.177Z,2.37
2022-11-08T04:38:23.127Z,2.40
2022-11-08T04:40:51.035Z,2.27
2022-11-08T04:43:18.822Z,2.07
2022-11-08T04:45:46.740Z,2.20
2022-11-08T04:48:14.514Z,1.97
2022-11-08T04:50:42.996Z,2.00
2022-11-08T04:53:10.795Z,2.30
2022-11-08T04:55:38.588Z,2.20
2022-11-08T04:58:06.479Z,2.33
2022-11-08T05:00:34.231Z,2.17
2022-11-08T05:03:05.166Z,2.07
2022-11-08T05:05:33.017Z,2.40
2022-11-08T05:08:00.912Z,2.20
2022-11-08T05:10:28.728Z,2.47
2022-11-08T05:12:58.057Z,2.60
2022-11-08T05:15:25.875Z,2.43
2022-11-08T05:17:53.834Z,2.43
2022-11-08T05:20:40.116Z,2.27
2022-11-08T05:23:26.298Z,1.93
2022-11-08T05:25:54.960Z,2.30
2022-11-08T05:28:23.293Z,2.40
2022-11-08T05:30:54.806Z,2.33
2022-11-08T05:33:22.934Z,4.03
2022-11-08T05:35:51.419Z,3.60
2022-11-08T05:38:20.510Z,3.80
2022-11-08T05:40:48.773Z,3.67
2022-11-08T05:43:16.882Z,3.90
2022-11-08T05:45:46.541Z,3.60
2022-11-08T05:48:14.491Z,3.57
2022-11-08T05:50:42.564Z,4.20
2022-11-08T05:53:12.395Z,4.17
2022-11-08T05:55:40.296Z,3.80
2022-11-08T05:58:08.198Z,3.60
2022-11-08T06:00:36.440Z,3.60
2022-11-08T06:03:04.715Z,3.20
2022-11-08T06:05:33.053Z,3.40
2022-11-08T06:08:00.945Z,3.37
2022-11-08T06:10:28.769Z,3.27
2022-11-08T06:13:00.248Z,3.60
2022-11-08T06:15:28.158Z,3.10
2022-11-08T06:17:56.084Z,3.10
2022-11-08T06:20:23.914Z,2.97
2022-11-08T06:22:51.885Z,3.13
2022-11-08T06:25:19.946Z,3.17
2022-11-08T06:27:47.925Z,3.40
2022-11-08T06:30:15.895Z,3.00
2022-11-08T06:32:43.768Z,3.10
2022-11-08T06:35:11.779Z,3.07
2022-11-08T06:37:39.663Z,3.13
2022-11-08T06:40:07.938Z,3.97
2022-11-08T06:42:35.896Z,3.20
2022-11-08T06:45:03.830Z,3.10
2022-11-08T06:47:31.634Z,3.17
2022-11-08T06:49:59.564Z,3.60
2022-11-08T06:52:27.387Z,3.60
2022-11-08T06:54:55.197Z,3.20
2022-11-08T06:57:23.134Z,3.37
2022-11-08T06:59:53.363Z,3.50
2022-11-08T07:02:21.414Z,4.23
2022-11-08T07:04:49.359Z,4.00
2022-11-08T07:07:17.269Z,3.97
2022-11-08T07:09:45.120Z,3.17
2022-11-08T07:12:12.981Z,3.20
2022-11-08T07:14:40.805Z,3.30
2022-11-08T07:17:08.678Z,3.50
2022-11-08T07:19:36.520Z,3.87
2022-11-08T07:22:04.486Z,4.03
2022-11-08T07:24:32.274Z,5.13
2022-11-08T07:27:00.121Z,4.17
2022-11-08T07:29:28.009Z,3.50
2022-11-08T07:31:56.055Z,4.07
2022-11-08T07:34:24.541Z,4.30
2022-11-08T07:36:52.301Z,4.43
2022-11-08T07:39:20.256Z,4.00
2022-11-08T07:41:49.263Z,3.77
2022-11-08T07:44:17.266Z,3.73
2022-11-08T07:46:45.099Z,3.53
2022-11-08T07:49:12.955Z,3.20
2022-11-08T07:51:40.838Z,3.17
2022-11-08T07:54:08.805Z,3.30
2022-11-08T07:56:36.708Z,3.40
2022-11-08T07:59:04.569Z,3.27
2022-11-08T08:01:32.434Z,3.10
2022-11-08T08:04:00.293Z,3.23
2022-11-08T08:06:28.171Z,3.07
2022-11-08T08:08:55.947Z,4.00
2022-11-08T08:11:23.887Z,3.73
2022-11-08T08:13:51.919Z,4.00
2022-11-08T08:16:19.965Z,3.90
2022-11-08T08:18:55.062Z,3.50
2022-11-08T08:21:24.104Z,3.43
2022-11-08T08:23:51.961Z,3.60
2022-11-08T08:26:19.750Z,4.03
2022-11-08T08:28:47.707Z,4.23
2022-11-08T08:31:15.723Z,3.97
2022-11-08T08:33:43.624Z,3.93
2022-11-08T08:36:11.493Z,3.30
2022-11-08T08:38:44.338Z,4.13
2022-11-08T08:41:16.688Z,4.17
2022-11-08T08:43:45.761Z,4.00
2022-11-08T08:46:13.595Z,3.97
2022-11-08T08:48:41.507Z,3.70
2022-11-08T08:51:09.459Z,3.60
2022-11-08T08:53:40.874Z,3.30
2022-11-08T08:56:09.984Z,3.50
2022-11-08T08:58:39.693Z,4.67
2022-11-08T09:04:03.016Z,3.67
2022-11-08T09:06:31.127Z,3.77
2022-11-08T09:08:58.947Z,3.40
2022-11-08T09:11:27.062Z,3.37
2022-11-08T09:13:54.875Z,3.10
2022-11-08T09:16:22.776Z,3.00
2022-11-08T09:18:51.099Z,3.63
2022-11-08T09:21:19.130Z,3.53
2022-11-08T09:23:47.096Z,3.33
2022-11-08T09:26:14.959Z,3.40
2022-11-08T09:28:43.282Z,3.73
2022-11-08T09:31:11.960Z,3.70
2022-11-08T09:33:40.731Z,3.60
2022-11-08T09:36:09.534Z,3.97
2022-11-08T09:38:37.648Z,4.43
2022-11-08T09:41:15.486Z,4.10
2022-11-08T09:43:46.357Z,3.90
2022-11-08T09:46:19.671Z,3.97
2022-11-08T09:48:47.721Z,4.23
2022-11-08T09:51:17.446Z,4.57
2022-11-08T09:53:49.720Z,4.50
2022-11-08T09:56:17.585Z,4.57
2022-11-08T09:58:55.955Z,5.07
2022-11-08T10:01:27.156Z,4.83
2022-11-08T10:03:56.495Z,4.93
2022-11-08T10:06:44.690Z,4.77
2022-11-08T10:09:36.645Z,5.40
2022-11-08T10:12:23.182Z,4.80
2022-11-08T10:14:54.327Z,4.80
2022-11-08T10:17:25.718Z,4.10
2022-11-08T10:20:16.725Z,4.33
2022-11-08T10:22:52.735Z,4.10
2022-11-08T10:25:24.253Z,4.50
2022-11-08T10:27:54.961Z,4.37
2022-11-08T10:30:24.965Z,4.10
2022-11-08T10:32:55.029Z,3.97
2022-11-08T10:35:26.711Z,4.03
2022-11-08T10:37:56.548Z,4.50
2022-11-08T10:40:41.584Z,4.80
2022-11-08T10:43:13.083Z,4.17
2022-11-08T10:45:41.320Z,5.13
2022-11-08T10:48:11.272Z,4.63
2022-11-08T10:50:46.836Z,4.43
2022-11-08T10:53:27.456Z,4.10
2022-11-08T10:56:06.453Z,4.53
2022-11-08T10:58:34.389Z,4.10
2022-11-08T11:01:22.882Z,4.10
2022-11-08T11:03:51.977Z,4.10
2022-11-08T11:06:24.346Z,4.17
2022-11-08T11:08:55.142Z,3.87
2022-11-08T11:11:27.827Z,3.93
2022-11-08T11:14:16.590Z,3.87
2022-11-08T11:17:01.953Z,3.97
2022-11-08T11:19:30.143Z,3.97
2022-11-08T11:22:08.925Z,4.17
2022-11-08T11:24:37.483Z,3.80
2022-11-08T11:27:06.717Z,4.00
2022-11-08T11:29:35.729Z,3.73
2022-11-08T11:32:22.266Z,3.83
2022-11-08T11:34:57.543Z,3.77
2022-11-08T11:37:25.380Z,3.73
2022-11-08T11:40:02.879Z,3.90
2022-11-08T11:42:50.923Z,3.37
2022-11-08T11:45:18.990Z,3.60
2022-11-08T11:47:50.691Z,3.57
2022-11-08T11:50:40.422Z,3.40
2022-11-08T11:53:19.543Z,3.60
2022-11-08T11:56:05.949Z,3.40
2022-11-08T11:58:46.049Z,3.73
2022-11-08T12:01:21.310Z,3.20
2022-11-08T12:03:55.286Z,3.30
2022-11-08T12:06:25.972Z,3.60
2022-11-08T12:08:53.956Z,3.30
2022-11-08T12:11:21.877Z,3.20
2022-11-08T12:13:54.543Z,3.30
2022-11-08T12:16:35.179Z,3.40
2022-11-08T12:19:21.119Z,3.10
2022-11-08T12:21:58.242Z,3.07
2022-11-08T12:24:45.021Z,2.80
2022-11-08T12:27:15.960Z,2.63
2022-11-08T12:29:43.832Z,2.73
2022-11-08T12:32:11.623Z,2.70
2022-11-08T12:34:59.521Z,3.30
2022-11-08T12:37:43.719Z,2.83
2022-11-08T12:40:30.054Z,2.57
2022-11-08T12:43:18.548Z,2.80
2022-11-08T12:46:04.699Z,2.60
2022-11-08T12:48:32.532Z,2.90
2022-11-08T12:51:09.745Z,2.40
2022-11-08T12:53:56.396Z,2.70
2022-11-08T12:56:29.827Z,2.63
2022-11-08T12:58:57.930Z,2.87
2022-11-08T13:01:25.774Z,2.57
2022-11-08T13:03:53.908Z,2.40
2022-11-08T13:06:24.794Z,2.23
2022-11-08T13:08:57.033Z,2.60
2022-11-08T13:11:31.365Z,2.70
2022-11-08T13:14:00.890Z,2.80
2022-11-08T13:16:28.896Z,2.47
2022-11-08T13:18:58.322Z,2.67
2022-11-08T13:21:29.327Z,2.37
2022-11-08T13:24:09.874Z,2.33
2022-11-08T13:26:43.535Z,2.50
2022-11-08T13:29:34.031Z,2.37
2022-11-08T13:32:11.487Z,2.57
2022-11-08T13:34:39.464Z,2.23
2022-11-08T13:37:25.681Z,2.37
2022-11-08T13:40:03.742Z,2.45
2022-11-08T13:42:39.292Z,2.40
2022-11-08T13:45:25.156Z,2.27
2022-11-08T13:47:55.189Z,2.28
2022-11-08T13:50:29.823Z,2.00
2022-11-08T13:53:05.604Z,2.50
2022-11-08T13:55:42.870Z,2.03
2022-11-08T13:58:29.739Z,2.00
2022-11-08T14:00:58.268Z,2.57
2022-11-08T14:03:35.231Z,2.22
2022-11-08T14:06:06.033Z,2.28
2022-11-08T14:08:44.616Z,1.90
2022-11-08T14:11:23.848Z,2.10
2022-11-08T14:14:04.154Z,1.90
2022-11-08T14:16:36.136Z,2.15
2022-11-08T14:19:15.637Z,1.98
2022-11-08T14:21:47.848Z,1.65
2022-11-08T14:24:21.115Z,1.60
2022-11-08T14:26:49.375Z,1.77
2022-11-08T14:29:18.555Z,1.77
2022-11-08T14:31:46.870Z,1.63
2022-11-08T14:34:28.478Z,1.60
2022-11-08T14:36:56.462Z,1.60
2022-11-08T14:39:45.020Z,1.77
2022-11-08T14:42:16.935Z,2.03
2022-11-08T14:44:45.278Z,1.60
2022-11-08T14:47:26.945Z,1.60
2022-11-08T14:49:54.897Z,1.73
2022-11-08T14:52:27.651Z,1.83
2022-11-08T14:55:04.422Z,1.77
2022-11-08T14:57:32.292Z,1.88
2022-11-08T15:00:01.880Z,1.70
2022-11-08T15:02:30.063Z,1.73
2022-11-08T15:04:57.914Z,1.93
2022-11-08T15:07:26.780Z,1.70
2022-11-08T15:09:55.258Z,2.00
2022-11-08T15:12:24.726Z,1.90
2022-11-08T15:14:58.018Z,2.20
2022-11-08T15:17:33.005Z,1.80
2022-11-08T15:20:26.439Z,1.93
2022-11-08T15:22:56.760Z,2.10
2022-11-08T15:25:26.323Z,1.67
2022-11-08T15:27:55.451Z,2.10
2022-11-08T15:30:35.686Z,2.00
2022-11-08T15:33:03.730Z,2.23
2022-11-08T15:35:37.057Z,2.07
2022-11-08T15:38:28.437Z,1.70
2022-11-08T15:40:58.028Z,1.80
2022-11-08T15:43:31.881Z,2.03
2022-11-08T15:46:00.836Z,2.00
2022-11-08T15:48:28.863Z,1.93
2022-11-08T15:50:57.337Z,1.90
2022-11-08T15:53:26.057Z,1.80
2022-11-08T15:56:05.062Z,1.73
2022-11-08T15:58:34.374Z,1.90
2022-11-08T16:01:03.007Z,2.07
2022-11-08T16:03:31.512Z,2.10
2022-11-08T16:05:59.409Z,2.13
2022-11-08T16:08:27.557Z,2.13
2022-11-08T16:10:58.707Z,2.00
2022-11-08T16:13:29.729Z,2.00
2022-11-08T16:15:58.765Z,2.10
2022-11-08T16:18:27.018Z,2.17
2022-11-08T16:20:55.082Z,2.17
2022-11-08T16:23:23.002Z,2.70
2022-11-08T16:25:52.070Z,2.40
2022-11-08T16:28:23.075Z,2.47
2022-11-08T16:30:51.246Z,2.53
2022-11-08T16:33:23.356Z,2.50
2022-11-08T16:35:51.308Z,2.73
2022-11-08T16:38:23.299Z,2.33
2022-11-08T16:40:51.202Z,2.60
2022-11-08T16:43:19.015Z,2.63
2022-11-08T16:48:36.998Z,2.70
2022-11-08T16:51:06.052Z,2.27
2022-11-08T16:53:34.145Z,2.10
2022-11-08T16:56:02.038Z,2.30
2022-11-08T16:58:29.917Z,2.73
2022-11-08T17:00:57.933Z,2.60
2022-11-08T17:03:29.878Z,2.20
2022-11-08T17:05:58.807Z,2.30
2022-11-08T17:08:27.059Z,2.10
2022-11-08T17:10:55.610Z,2.40
2022-11-08T17:13:23.696Z,2.63
2022-11-08T17:15:51.961Z,2.07
2022-11-08T17:18:22.103Z,2.70
2022-11-08T17:20:51.763Z,1.80
2022-11-08T17:23:19.739Z,2.20
2022-11-08T17:25:47.760Z,2.30
2022-11-08T17:28:15.755Z,2.67
2022-11-08T17:30:44.799Z,2.40
2022-11-08T17:33:13.508Z,2.33
2022-11-08T17:35:44.396Z,2.40
2022-11-08T17:38:13.280Z,2.60
2022-11-08T17:40:42.686Z,3.17
2022-11-08T17:43:10.508Z,3.30
2022-11-08T17:45:38.481Z,2.50
2022-11-08T17:48:06.326Z,2.87
2022-11-08T17:50:34.345Z,3.77
2022-11-08T17:53:02.214Z,4.40
2022-11-08T17:55:30.090Z,4.33
2022-11-08T17:57:58.031Z,4.27
2022-11-08T18:00:26.113Z,3.60
2022-11-08T18:02:54.037Z,3.27
2022-11-08T18:05:21.915Z,3.10
2022-11-08T18:07:49.933Z,2.93
2022-11-08T18:10:17.791Z,2.90
2022-11-08T18:12:45.662Z,3.00
2022-11-08T18:15:13.597Z,2.77
2022-11-08T18:17:41.468Z,3.10
2022-11-08T18:20:09.699Z,3.00
2022-11-08T18:22:37.666Z,3.30
2022-11-08T18:25:05.804Z,3.07
2022-11-08T18:27:33.667Z,3.10
2022-11-08T18:30:01.577Z,3.20
2022-11-08T18:32:29.346Z,2.80
2022-11-08T18:34:57.205Z,2.70
2022-11-08T18:37:25.191Z,2.70
2022-11-08T18:39:53.038Z,2.70
2022-11-08T18:42:20.931Z,2.97
2022-11-08T18:44:48.841Z,3.17
2022-11-08T18:47:16.750Z,2.97
2022-11-08T18:49:44.643Z,3.07
2022-11-08T18:52:12.593Z,2.90
2022-11-08T18:54:40.528Z,2.70
2022-11-08T18:57:09.233Z,2.77
2022-11-08T18:59:37.030Z,2.67
2022-11-08T19:02:05.015Z,2.67
2022-11-08T19:04:32.886Z,2.70
2022-11-08T19:07:00.847Z,2.77
2022-11-08T19:09:28.805Z,2.50
2022-11-08T19:12:00.490Z,2.77
2022-11-08T19:14:31.308Z,2.63
2022-11-08T19:16:59.181Z,5.30
2022-11-08T19:19:26.932Z,3.87
2022-11-08T19:21:54.767Z,3.73
2022-11-08T19:24:23.325Z,3.20
2022-11-08T19:26:51.220Z,2.97
2022-11-08T19:29:19.175Z,2.80
2022-11-08T19:31:47.411Z,2.90
2022-11-08T19:34:15.275Z,2.80
2022-11-08T19:36:49.031Z,3.00
2022-11-08T19:39:19.268Z,2.90
2022-11-08T19:41:47.179Z,3.27
2022-11-08T19:44:15.635Z,3.03
2022-11-08T19:46:43.503Z,3.00
2022-11-08T19:49:11.397Z,3.33
2022-11-08T19:51:39.812Z,3.00
2022-11-08T19:54:08.858Z,3.03
2022-11-08T19:57:03.067Z,2.73
2022-11-08T19:59:25.448Z,3.10
2022-11-08T20:01:53.420Z,3.53
2022-11-08T20:04:21.536Z,3.63
2022-11-08T20:06:49.454Z,3.07
2022-11-08T20:09:17.372Z,3.40
2022-11-08T20:11:45.632Z,3.57
2022-11-08T20:14:14.626Z,3.13
2022-11-08T20:16:44.996Z,3.23
2022-11-08T20:19:16.899Z,3.20
2022-11-08T20:21:46.513Z,2.90
2022-11-08T20:24:14.868Z,2.70
2022-11-08T20:26:43.363Z,2.67
2022-11-08T20:29:11.259Z,3.10
2022-11-08T20:31:42.324Z,2.70
2022-11-08T20:34:12.139Z,3.00
2022-11-08T20:36:41.245Z,2.87
2022-11-08T20:39:09.263Z,3.03
2022-11-08T20:41:38.905Z,2.80
2022-11-08T20:44:07.454Z,3.00
2022-11-08T20:46:36.905Z,2.97
2022-11-08T20:49:05.352Z,2.80
2022-11-08T20:51:33.357Z,2.67
2022-11-08T20:54:01.717Z,2.50
2022-11-08T20:56:29.873Z,2.80
2022-11-08T20:58:57.755Z,2.63
2022-11-08T21:01:28.356Z,2.80
2022-11-08T21:03:56.549Z,2.70
2022-11-08T21:06:25.196Z,2.73
2022-11-08T21:09:07.534Z,2.33
2022-11-08T21:11:38.237Z,2.40
2022-11-08T21:14:06.102Z,2.87
2022-11-08T21:16:52.721Z,2.50
2022-11-08T21:19:21.887Z,2.40
2022-11-08T21:21:49.715Z,2.67
2022-11-08T21:24:17.539Z,2.47
2022-11-08T21:26:45.328Z,2.50
2022-11-08T21:29:13.282Z,2.67
2022-11-08T21:31:41.123Z,2.50
2022-11-08T21:34:09.680Z,2.10
2022-11-08T21:36:37.505Z,2.30
2022-11-08T21:39:05.722Z,2.70
2022-11-08T21:41:33.473Z,2.40
2022-11-08T21:44:01.462Z,2.20
2022-11-08T21:46:29.370Z,2.60
2022-11-08T21:49:01.897Z,2.40
2022-11-08T21:51:30.412Z,2.50
2022-11-08T21:53:59.138Z,2.43
2022-11-08T21:56:29.750Z,2.70
2022-11-08T21:58:57.668Z,2.40
2022-11-08T22:01:29.938Z,2.80
2022-11-08T22:03:58.718Z,2.93
2022-11-08T22:06:27.118Z,2.60
2022-11-08T22:08:54.979Z,2.60
2022-11-08T22:11:22.891Z,2.27
2022-11-08T22:13:50.777Z,2.40
2022-11-08T22:16:18.591Z,2.93
2022-11-08T22:21:43.439Z,2.67
2022-11-08T22:24:20.694Z,2.77
2022-11-08T22:26:49.405Z,2.50
2022-11-08T22:29:17.761Z,2.90
2022-11-08T22:31:45.715Z,2.70
2022-11-08T22:34:13.505Z,2.90
2022-11-08T22:36:45.232Z,3.03
2022-11-08T22:39:17.692Z,2.80
2022-11-08T22:41:46.049Z,2.90
2022-11-08T22:44:14.669Z,2.80
2022-11-08T22:46:42.890Z,2.77
2022-11-08T22:49:10.982Z,2.70
2022-11-08T22:51:39.330Z,2.87
2022-11-08T22:54:07.678Z,2.57
2022-11-08T22:56:36.112Z,3.13
2022-11-08T22:59:04.694Z,2.80
2022-11-08T23:01:32.882Z,2.87
2022-11-08T23:04:00.676Z,3.07
2022-11-08T23:06:28.575Z,2.47
2022-11-08T23:08:56.439Z,2.77
2022-11-08T23:11:42.990Z,2.73
2022-11-08T23:14:33.929Z,3.03
2022-11-08T23:17:05.223Z,2.77
2022-11-08T23:19:51.484Z,2.50
2022-11-08T23:22:38.495Z,2.43
2022-11-08T23:25:06.539Z,2.50
2022-11-08T23:27:52.704Z,3.07
2022-11-08T23:30:39.180Z,3.13
2022-11-08T23:33:07.374Z,2.60
2022-11-08T23:35:35.382Z,3.17
2022-11-08T23:38:03.357Z,2.90
2022-11-08T23:40:49.720Z,2.83
2022-11-08T23:43:37.654Z,3.07
2022-11-08T23:46:09.858Z,3.00
2022-11-08T23:48:38.428Z,3.23
2022-11-08T23:51:08.040Z,2.67
2022-11-08T23:53:37.346Z,2.90
2022-11-08T23:56:05.720Z,2.90
2022-11-08T23:58:34.020Z,3.10
